Time;durP1;ratioP1;P1;durP2;ratioP2;P2;SDS_P1;SDS_P2;PMS_P1;PMS_P2;Temp;Humidity;BMP_temperature;BMP_pressure;BME280_temperature;BME280_humidity;BME280_pressure;Samples;Min_cycle;Max_cycle;Signal;HPM_P1;HPM_P2
2023/07/12 00:00:27;;;;;;;6.82;2.85;;;17.90;99.90;;;;;;5006863;28;20060;-64
2023/07/12 00:02:54;;;;;;;6.07;2.72;;;;;;;;;;5026737;28;20044;-65
2023/07/12 00:05:21;;;;;;;6.85;3.78;;;17.90;99.90;;;;;;5039759;28;20203;-67
2023/07/12 00:07:47;;;;;;;4.40;2.92;;;;;;;;;;5025821;28;20556;-65
2023/07/12 00:10:24;;;;;;;6.90;3.90;;;17.80;99.90;;;;;;5017947;28;20589;-66
2023/07/12 00:12:51;;;;;;;8.05;3.83;;;17.70;99.90;;;;;;5003584;28;20053;-62
2023/07/12 00:15:21;;;;;;;7.90;3.80;;;17.80;99.90;;;;;;5021055;28;20127;-65
2023/07/12 00:17:47;;;;;;;8.05;3.97;;;;;;;;;;4997829;28;20629;-67
2023/07/12 00:20:33;;;;;;;7.55;4.35;;;17.70;99.90;;;;;;5028190;28;20126;-65
2023/07/12 00:22:59;;;;;;;11.80;4.13;;;;;;;;;;5023331;28;20061;-64
2023/07/12 00:25:29;;;;;;;9.88;3.92;;;17.70;99.90;;;;;;5003879;28;20100;-65
2023/07/12 00:27:55;;;;;;;7.05;4.15;;;;;;;;;;5028317;28;20224;-64
2023/07/12 00:30:28;;;;;;;10.98;4.25;;;17.70;99.90;;;;;;5022791;28;20057;-66
2023/07/12 00:32:57;;;;;;;7.78;4.20;;;18.20;99.90;;;;;;5026208;28;20056;-63
2023/07/12 00:35:26;;;;;;;7.90;4.70;;;17.80;99.90;;;;;;5025677;28;20045;-67
2023/07/12 00:37:55;;;;;;;8.25;4.03;;;17.70;99.90;;;;;;5018132;28;20068;-66
2023/07/12 00:40:42;;;;;;;9.80;4.15;;;17.60;99.90;;;;;;5020868;28;20413;-65
2023/07/12 00:43:24;;;;;;;5.70;4.43;;;17.70;99.90;;;;;;5026391;28;20065;-64
2023/07/12 00:45:51;;;;;;;7.32;4.25;;;17.80;99.90;;;;;;5002652;28;20077;-65
2023/07/12 00:48:19;;;;;;;7.40;4.53;;;;;;;;;;5025138;28;20071;-65
2023/07/12 00:50:49;;;;;;;7.43;4.38;;;17.80;99.90;;;;;;5000684;28;20053;-66
2023/07/12 00:53:16;;;;;;;7.35;4.30;;;;;;;;;;5020482;28;20450;-65
2023/07/12 00:55:52;;;;;;;7.70;4.22;;;;;;;;;;5023116;28;20045;-64
2023/07/12 00:58:18;;;;;;;6.38;4.63;;;;;;;;;;5023563;28;20125;-65
2023/07/12 01:00:44;;;;;;;8.80;4.53;;;;;;;;;;5003219;28;20084;-66
2023/07/12 01:03:13;;;;;;;12.05;4.85;;;;;;;;;;5025501;28;20085;-64
2023/07/12 01:05:44;;;;;;;6.72;4.10;;;;;;;;;;5022253;28;20052;-66
2023/07/12 01:08:11;;;;;;;6.53;3.47;;;;;;;;;;5021164;28;20049;-62
2023/07/12 01:10:38;;;;;;;10.10;4.65;;;17.70;99.90;;;;;;5022902;28;20055;-65
2023/07/12 01:13:05;;;;;;;7.10;3.50;;;21.50;99.90;;;;;;5025626;28;20083;-65
2023/07/12 01:15:32;;;;;;;5.72;3.13;;;;;;;;;;5021662;28;20537;-65
2023/07/12 01:17:58;;;;;;;8.20;3.35;;;;;;;;;;5022505;28;20052;-66
2023/07/12 01:20:25;;;;;;;5.07;3.50;;;;;;;;;;5025925;28;20456;-65
2023/07/12 01:22:52;;;;;;;5.55;3.50;;;17.70;99.90;;;;;;5026019;28;20053;-66
2023/07/12 01:25:18;;;;;;;5.15;2.85;;;;;;;;;;5029097;28;20407;-67
2023/07/12 01:27:44;;;;;;;5.78;3.15;;;;;;;;;;5028366;28;20048;-66
2023/07/12 01:30:11;;;;;;;8.35;3.53;;;;;;;;;;5023669;28;20489;-65
2023/07/12 01:32:38;;;;;;;6.47;3.42;;;;;;;;;;5026505;28;20049;-65
2023/07/12 01:35:04;;;;;;;7.70;3.25;;;;;;;;;;5023485;28;20451;-66
2023/07/12 01:37:30;;;;;;;5.32;3.33;;;;;;;;;;5012656;28;20286;-64
2023/07/12 01:39:56;;;;;;;11.93;4.15;;;;;;;;;;5027199;28;20049;-65
2023/07/12 01:42:22;;;;;;;6.85;3.58;;;;;;;;;;5005138;28;20053;-65
2023/07/12 01:44:48;;;;;;;4.93;3.15;;;;;;;;;;5045556;28;20780;-66
2023/07/12 01:47:15;;;;;;;9.23;3.22;;;;;;;;;;5040756;28;20561;-65
2023/07/12 01:49:41;;;;;;;6.07;3.58;;;;;;;;;;5040855;28;20068;-65
2023/07/12 01:52:07;;;;;;;4.03;2.55;;;17.60;99.90;;;;;;5024451;28;20479;-65
2023/07/12 01:54:33;;;;;;;6.85;3.00;;;;;;;;;;5007622;28;20106;-68
2023/07/12 01:56:59;;;;;;;4.68;2.95;;;;;;;;;;5026380;28;20666;-64
2023/07/12 01:59:26;;;;;;;6.82;3.45;;;;;;;;;;5024779;28;20157;-66
2023/07/12 02:01:54;;;;;;;4.75;2.90;;;;;;;;;;5024162;28;20057;-66
2023/07/12 02:04:20;;;;;;;9.18;3.40;;;;;;;;;;5022904;28;20068;-66
2023/07/12 02:06:46;;;;;;;8.45;3.13;;;;;;;;;;5018556;28;20049;-65
2023/07/12 02:09:12;;;;;;;6.35;2.63;;;;;;;;;;5044764;28;20056;-66
2023/07/12 02:11:38;;;;;;;5.60;3.17;;;;;;;;;;5040265;28;20516;-66
2023/07/12 02:14:04;;;;;;;6.38;3.08;;;;;;;;;;5022858;28;20048;-65
2023/07/12 02:16:30;;;;;;;4.68;2.92;;;;;;;;;;5019624;28;20131;-64
2023/07/12 02:18:56;;;;;;;4.63;2.90;;;;;;;;;;5026556;28;20076;-63
2023/07/12 02:21:22;;;;;;;4.88;2.25;;;;;;;;;;5042152;28;20040;-65
2023/07/12 02:23:48;;;;;;;3.15;2.20;;;;;;;;;;5023316;28;20292;-65
2023/07/12 02:26:14;;;;;;;5.22;3.20;;;;;;;;;;5041608;28;20045;-66
2023/07/12 02:28:40;;;;;;;7.43;2.88;;;;;;;;;;5016525;28;20170;-65
2023/07/12 02:31:23;;;;;;;7.90;3.15;;;17.60;99.90;;;;;;5018941;28;20053;-65
2023/07/12 02:33:49;;;;;;;;;;;;;;;;;;5032498;28;20092;-65
2023/07/12 02:36:15;;;;;;;5.00;2.63;;;;;;;;;;5007605;28;19928;-65
2023/07/12 02:38:42;;;;;;;4.40;2.35;;;;;;;;;;5041197;28;20049;-65
2023/07/12 02:41:08;;;;;;;8.77;3.20;;;;;;;;;;5021055;28;20041;-67
2023/07/12 02:43:34;;;;;;;8.70;2.42;;;;;;;;;;5016209;28;20153;-64
2023/07/12 02:46:00;;;;;;;4.07;2.40;;;;;;;;;;5002276;28;20132;-66
2023/07/12 02:48:27;;;;;;;4.90;2.45;;;;;;;;;;5036257;28;20419;-65
2023/07/12 02:50:53;;;;;;;4.93;2.65;;;;;;;;;;5038667;28;20103;-63
2023/07/12 02:53:19;;;;;;;5.22;2.58;;;;;;;;;;5025289;28;20092;-63
2023/07/12 02:55:49;;;;;;;8.75;2.95;;;17.50;99.90;;;;;;5019715;28;20699;-65
2023/07/12 02:58:16;;;;;;;7.43;2.58;;;;;;;;;;5022869;28;20049;-64
2023/07/12 03:00:42;;;;;;;7.32;3.13;;;;;;;;;;5004713;28;20597;-65
2023/07/12 03:03:09;;;;;;;12.50;3.00;;;;;;;;;;5027716;28;20136;-64
2023/07/12 03:05:39;;;;;;;7.43;2.88;;;17.40;99.90;;;;;;5025920;28;20101;-66
2023/07/12 03:08:05;;;;;;;6.13;2.67;;;17.60;99.90;;;;;;5019306;28;20191;-66
2023/07/12 03:10:32;;;;;;;6.15;2.92;;;;;;;;;;5007547;28;20053;-68
2023/07/12 03:12:58;;;;;;;6.40;3.08;;;;;;;;;;5039069;28;20135;-65
2023/07/12 03:15:24;;;;;;;7.35;3.63;;;;;;;;;;5021660;28;20379;-65
2023/07/12 03:17:50;;;;;;;6.85;3.50;;;;;;;;;;5006064;28;20053;-66
2023/07/12 03:20:16;;;;;;;11.60;3.65;;;;;;;;;;5042476;28;20090;-65
2023/07/12 03:22:42;;;;;;;12.07;4.22;;;17.00;99.90;;;;;;5018920;28;20053;-64
2023/07/12 03:25:08;;;;;;;6.15;3.35;;;17.00;99.90;;;;;;5021513;28;20079;-65
2023/07/12 03:27:34;;;;;;;8.55;3.13;;;16.80;99.90;;;;;;5018763;28;20056;-64
2023/07/12 03:30:00;;;;;;;11.15;3.55;;;16.80;99.90;;;;;;5019630;28;20127;-64
2023/07/12 03:32:26;;;;;;;9.05;3.70;;;;;;;;;;5020859;28;20413;-63
2023/07/12 03:34:52;;;;;;;9.68;3.22;;;16.70;99.90;;;;;;5043875;28;20508;-65
2023/07/12 03:37:18;;;;;;;9.07;2.72;;;16.80;99.90;;;;;;5006497;28;20410;-65
2023/07/12 03:39:44;;;;;;;8.35;2.45;;;16.70;99.90;;;;;;5018458;28;20088;-66
2023/07/12 03:42:09;;;;;;;9.23;2.97;;;16.90;99.90;;;;;;5024568;28;20053;-64
2023/07/12 03:44:36;;;;;;;7.65;2.70;;;17.10;99.90;;;;;;5003919;28;20133;-66
2023/07/12 03:47:02;;;;;;;7.35;2.65;;;;;;;;;;5008895;28;20049;-64
2023/07/12 03:49:29;;;;;;;9.77;2.92;;;;;;;;;;5035806;28;20057;-67
2023/07/12 03:51:55;;;;;;;10.85;3.75;;;;;;;;;;5044835;28;20417;-64
2023/07/12 03:54:24;;;;;;;14.32;3.22;;;;;;;;;;5023263;28;20517;-66
2023/07/12 03:56:50;;;;;;;10.75;3.67;;;;;;;;;;5038351;28;20053;-65
2023/07/12 03:59:16;;;;;;;10.32;3.08;;;;;;;;;;5023213;28;20371;-65
2023/07/12 04:01:42;;;;;;;12.35;3.05;;;;;;;;;;5038093;28;20064;-66
2023/07/12 04:04:08;;;;;;;17.67;3.45;;;;;;;;;;5032401;28;20392;-64
2023/07/12 04:06:34;;;;;;;11.85;3.53;;;16.80;99.90;;;;;;5022789;28;20103;-65
2023/07/12 04:09:02;;;;;;;7.97;3.25;;;16.70;99.90;;;;;;5025839;28;20468;-65
2023/07/12 04:11:32;;;;;;;12.15;4.20;;;16.70;99.90;;;;;;5020378;28;20053;-64
2023/07/12 04:14:02;;;;;;;8.02;3.10;;;;;;;;;;5023315;28;20445;-65
2023/07/12 04:16:29;;;;;;;13.88;4.82;;;16.70;99.90;;;;;;5021386;28;20559;-63
2023/07/12 04:18:56;;;;;;;8.85;3.65;;;16.70;99.90;;;;;;5016617;28;20526;-65
2023/07/12 04:21:22;;;;;;;8.30;4.35;;;16.70;99.90;;;;;;5025588;28;20483;-64
2023/07/12 04:23:49;;;;;;;10.02;4.88;;;16.60;99.90;;;;;;5022335;28;20124;-65
2023/07/12 04:26:17;;;;;;;12.68;5.00;;;16.80;99.90;;;;;;5019916;28;20569;-65
2023/07/12 04:28:48;;;;;;;13.27;5.35;;;16.80;99.90;;;;;;5028644;28;20064;-64
2023/07/12 04:31:15;;;;;;;11.88;5.32;;;16.90;99.90;;;;;;5025383;28;20047;-65
2023/07/12 04:33:41;;;;;;;18.77;6.28;;;18.20;99.90;;;;;;5022567;28;20049;-66
2023/07/12 04:36:09;;;;;;;15.52;5.38;;;17.00;99.90;;;;;;5023564;28;20084;-64
2023/07/12 04:38:36;;;;;;;10.65;4.63;;;16.90;99.90;;;;;;4990693;28;20298;-64
2023/07/12 04:41:02;;;;;;;13.70;4.78;;;17.00;99.90;;;;;;5011231;28;20252;-65
2023/07/12 04:43:28;;;;;;;15.18;5.43;;;;;;;;;;5013274;28;20539;-63
2023/07/12 04:45:54;;;;;;;17.00;5.40;;;;;;;;;;5016842;28;20057;-64
2023/07/12 04:48:21;;;;;;;11.82;4.55;;;17.30;99.90;;;;;;5033876;28;20623;-65
2023/07/12 04:50:53;;;;;;;9.68;4.50;;;19.40;99.90;;;;;;5004997;28;20085;-60
2023/07/12 04:53:29;;;;;;;11.35;4.57;;;17.10;99.90;;;;;;5016170;28;20057;-65
2023/07/12 04:55:55;;;;;;;12.40;4.30;;;17.10;99.90;;;;;;5022610;28;20132;-65
2023/07/12 04:58:21;;;;;;;12.07;4.78;;;17.10;99.90;;;;;;4971276;28;20053;-65
2023/07/12 05:00:47;;;;;;;11.30;4.65;;;17.10;99.90;;;;;;4996591;28;20059;-65
2023/07/12 05:03:15;;;;;;;10.13;4.95;;;16.10;99.90;;;;;;5024794;28;20056;-65
2023/07/12 05:05:43;;;;;;;13.43;4.80;;;17.00;99.90;;;;;;5016810;28;20076;-65
2023/07/12 05:08:09;;;;;;;10.52;3.65;;;;;;;;;;5015130;28;20072;-65
2023/07/12 05:10:36;;;;;;;13.52;4.38;;;17.10;99.90;;;;;;5004276;28;20056;-65
2023/07/12 05:13:02;;;;;;;11.82;4.43;;;;;;;;;;5017016;28;20487;-64
2023/07/12 05:15:27;;;;;;;14.40;4.30;;;17.10;99.90;;;;;;5019152;28;20089;-65
2023/07/12 05:17:54;;;;;;;9.20;4.22;;;;;;;;;;4978039;28;20124;-64
2023/07/12 05:20:21;;;;;;;13.07;4.57;;;17.20;99.90;;;;;;5035561;28;20199;-66
2023/07/12 05:22:47;;;;;;;8.85;3.67;;;17.20;99.90;;;;;;5020657;28;20060;-65
2023/07/12 05:25:13;;;;;;;14.30;4.60;;;17.20;99.90;;;;;;5018708;28;20076;-62
2023/07/12 05:27:40;;;;;;;12.05;4.72;;;17.30;99.90;;;;;;5015320;28;20190;-66
2023/07/12 05:30:06;;;;;;;11.68;4.90;;;17.50;99.90;;;;;;4998119;28;20111;-65
2023/07/12 05:32:32;;;;;;;9.77;4.68;;;;;;;;;;5015774;28;20977;-63
2023/07/12 05:34:58;;;;;;;11.23;4.32;;;17.60;99.90;;;;;;5018690;28;20298;-64
2023/07/12 05:37:24;;;;;;;12.38;4.32;;;17.60;99.90;;;;;;4996975;28;20421;-65
2023/07/12 05:39:50;;;;;;;12.50;4.40;;;17.80;99.90;;;;;;5002151;28;20037;-64
2023/07/12 05:42:15;;;;;;;15.63;5.32;;;18.10;99.90;;;;;;5016044;28;20561;-65
2023/07/12 05:44:41;;;;;;;14.18;4.30;;;18.30;99.90;;;;;;5018463;28;20048;-66
2023/07/12 05:47:07;;;;;;;14.27;4.95;;;18.80;99.90;;;;;;5009909;28;20064;-64
2023/07/12 05:49:33;;;;;;;11.32;4.40;;;18.90;99.90;;;;;;5014721;28;20100;-65
2023/07/12 05:51:59;;;;;;;9.88;4.55;;;19.20;99.90;;;;;;5007592;28;20111;-64
2023/07/12 05:54:25;;;;;;;9.05;3.88;;;19.30;99.90;;;;;;5023921;28;20532;-63
2023/07/12 05:56:51;;;;;;;11.95;3.90;;;19.20;99.90;;;;;;5012294;28;20053;-64
2023/07/12 05:59:18;;;;;;;11.13;3.88;;;18.80;99.90;;;;;;4996050;28;20057;-60
2023/07/12 06:01:44;;;;;;;12.20;4.30;;;18.90;99.90;;;;;;5018350;28;20049;-65
2023/07/12 06:04:11;;;;;;;9.23;4.03;;;;;;;;;;5021435;28;20053;-65
2023/07/12 06:06:38;;;;;;;17.58;5.82;;;;;;;;;;5022585;28;20150;-64
2023/07/12 06:09:04;;;;;;;9.82;4.47;;;18.60;99.90;;;;;;4995813;28;20053;-67
2023/07/12 06:11:30;;;;;;;14.95;4.57;;;18.90;99.90;;;;;;5017848;28;20061;-65
2023/07/12 06:13:56;;;;;;;8.85;3.97;;;19.00;99.90;;;;;;5004293;28;20493;-65
2023/07/12 06:16:21;;;;;;;11.73;4.47;;;18.90;99.90;;;;;;4993604;28;20101;-64
2023/07/12 06:18:47;;;;;;;12.68;4.47;;;18.90;99.90;;;;;;4985822;28;20144;-65
2023/07/12 06:21:13;;;;;;;13.63;5.30;;;18.70;99.90;;;;;;4992591;28;20053;-65
2023/07/12 06:23:39;;;;;;;12.18;5.13;;;18.80;99.90;;;;;;5024587;28;20072;-65
2023/07/12 06:26:05;;;;;;;9.52;4.45;;;18.90;99.90;;;;;;5011613;28;20056;-65
2023/07/12 06:28:31;;;;;;;10.45;4.75;;;19.00;99.90;;;;;;5039269;28;20490;-64
2023/07/12 06:30:58;;;;;;;11.63;4.47;;;;;;;;;;5012177;28;20096;-65
2023/07/12 06:33:23;;;;;;;10.88;4.35;;;19.50;99.90;;;;;;5036043;28;20421;-64
2023/07/12 06:35:50;;;;;;;12.38;4.97;;;;;;;;;;5019702;28;20820;-65
2023/07/12 06:38:16;;;;;;;9.80;3.35;;;20.40;99.90;;;;;;4987049;28;20045;-66
2023/07/12 06:40:44;;;;;;;10.50;3.33;;;20.60;99.90;;;;;;5003977;28;20494;-65
2023/07/12 06:43:11;;;;;;;9.80;2.75;;;22.00;99.90;;;;;;5020948;28;20057;-65
2023/07/12 06:45:37;;;;;;;8.10;3.33;;;20.40;99.90;;;;;;4990302;28;20308;-63
2023/07/12 06:48:04;;;;;;;9.98;3.03;;;;;;;;;;4997729;28;20057;-65
2023/07/12 06:50:30;;;;;;;8.98;2.55;;;21.90;99.90;;;;;;4998148;28;20068;-65
2023/07/12 06:52:55;;;;;;;9.30;3.50;;;22.00;99.90;;;;;;5019103;28;20058;-65
2023/07/12 06:55:21;;;;;;;8.82;2.65;;;21.80;99.90;;;;;;4999851;28;20053;-65
2023/07/12 06:57:47;;;;;;;10.95;3.42;;;21.50;99.90;;;;;;5013959;28;20146;-65
2023/07/12 07:00:13;;;;;;;12.07;3.85;;;21.40;99.90;;;;;;4997800;28;20502;-65
2023/07/12 07:02:39;;;;;;;11.63;3.10;;;;;;;;;;5016342;28;20049;-65
2023/07/12 07:05:05;;;;;;;8.85;2.67;;;21.30;99.90;;;;;;5014845;28;20049;-64
2023/07/12 07:07:31;;;;;;;8.70;2.72;;;21.00;99.90;;;;;;4997801;28;20517;-66
2023/07/12 07:09:57;;;;;;;8.45;2.47;;;21.20;99.90;;;;;;5007132;28;20065;-67
2023/07/12 07:12:23;;;;;;;8.30;3.20;;;21.20;99.90;;;;;;5008118;28;20064;-67
2023/07/12 07:14:48;;;;;;;6.32;2.83;;;19.90;99.90;;;;;;5016327;28;20061;-66
2023/07/12 07:17:14;;;;;;;9.60;2.60;;;22.30;99.90;;;;;;5025521;28;20068;-67
2023/07/12 07:19:40;;;;;;;7.45;2.40;;;23.90;99.90;;;;;;4977101;28;20183;-66
2023/07/12 07:22:06;;;;;;;6.05;1.63;;;;;;;;;;5002238;28;20307;-65
2023/07/12 07:24:32;;;;;;;9.30;2.13;;;27.30;98.30;;;;;;5022297;28;20056;-67
2023/07/12 07:26:58;;;;;;;12.77;3.10;;;28.60;95.00;;;;;;5006913;28;20049;-65
2023/07/12 07:29:24;;;;;;;8.35;1.95;;;28.60;93.30;;;;;;4996943;28;20668;-66
2023/07/12 07:31:49;;;;;;;7.05;2.03;;;28.40;91.50;;;;;;5014909;28;20544;-66
2023/07/12 07:34:15;;;;;;;6.97;1.48;;;28.00;91.30;;;;;;5026521;28;20061;-63
2023/07/12 07:36:42;;;;;;;7.22;1.33;;;28.50;90.50;;;;;;5019351;28;20487;-67
2023/07/12 07:39:08;;;;;;;5.47;1.63;;;28.90;89.20;;;;;;4968629;28;20532;-67
2023/07/12 07:41:34;;;;;;;6.25;1.38;;;;;;;;;;5019929;28;20068;-66
2023/07/12 07:44:00;;;;;;;4.28;0.90;;;30.10;84.00;;;;;;5031818;28;20684;-66
2023/07/12 07:46:29;;;;;;;8.32;3.65;;;30.90;81.10;;;;;;5019388;28;20046;-66
2023/07/12 07:48:54;;;;;;;8.45;1.80;;;30.70;78.80;;;;;;5018228;28;20064;-61
2023/07/12 07:51:20;;;;;;;6.75;1.52;;;29.90;78.80;;;;;;5006742;28;20277;-66
2023/07/12 07:53:46;;;;;;;5.82;1.63;;;28.80;78.60;;;;;;4994108;28;20057;-66
2023/07/12 07:56:12;;;;;;;6.63;1.30;;;27.80;78.90;;;;;;5017453;28;20623;-67
2023/07/12 07:58:37;;;;;;;8.40;1.27;;;27.70;80.20;;;;;;5024002;28;20049;-64
2023/07/12 08:01:03;;;;;;;5.80;1.02;;;28.70;78.70;;;;;;5005577;28;20151;-66
2023/07/12 08:03:33;;;;;;;7.97;2.70;;;29.70;76.70;;;;;;5015938;28;20130;-66
2023/07/12 08:06:05;;;;;;;9.82;2.67;;;31.10;78.50;;;;;;5002998;28;20468;-66
2023/07/12 08:08:33;;;;;;;6.32;1.40;;;31.00;72.70;;;;;;5015466;28;20429;-68
2023/07/12 08:10:59;;;;;;;6.40;1.73;;;30.80;73.30;;;;;;5016052;28;20499;-66
2023/07/12 08:13:25;;;;;;;8.55;1.40;;;30.20;71.60;;;;;;5000848;28;20060;-65
2023/07/12 08:15:54;;;;;;;7.03;1.40;;;29.10;72.60;;;;;;5010541;28;20060;-66
2023/07/12 08:18:20;;;;;;;5.93;1.25;;;28.60;73.70;;;;;;4995262;28;20085;-65
2023/07/12 08:20:45;;;;;;;8.73;1.92;;;28.70;73.90;;;;;;4993613;28;20140;-66
2023/07/12 08:23:11;;;;;;;6.10;1.38;;;28.20;74.90;;;;;;5013410;28;20049;-67
2023/07/12 08:25:37;;;;;;;6.57;1.30;;;27.90;75.70;;;;;;4996563;28;20060;-67
2023/07/12 08:28:03;;;;;;;6.50;1.85;;;27.50;75.90;;;;;;4995132;28;20064;-65
2023/07/12 08:30:29;;;;;;;9.90;2.28;;;26.90;77.30;;;;;;5004731;28;20477;-67
2023/07/12 08:32:55;;;;;;;8.38;1.48;;;26.40;78.80;;;;;;5003786;28;20465;-67
2023/07/12 08:35:20;;;;;;;9.82;1.35;;;26.10;79.40;;;;;;5022829;28;20036;-64
2023/07/12 08:37:48;;;;;;;14.25;2.65;;;;;;;;;;5006636;28;20325;-66
2023/07/12 08:40:15;;;;;;;6.13;1.50;;;26.80;78.10;;;;;;5027977;28;20988;-68
2023/07/12 08:42:42;;;;;;;8.30;1.70;;;26.90;77.80;;;;;;5022716;28;20060;-65
2023/07/12 08:45:28;;;;;;;9.30;1.48;;;27.60;77.60;;;;;;5021287;28;20048;-67
2023/07/12 08:48:04;;;;;;;6.68;1.80;;;28.70;75.50;;;;;;4998970;28;20099;-65
2023/07/12 08:50:50;;;;;;;8.20;1.77;;;29.00;74.00;;;;;;5006731;28;20049;-66
2023/07/12 08:53:33;;;;;;;8.23;1.58;;;28.70;73.90;;;;;;5012274;28;20710;-66
2023/07/12 08:56:50;;;;;;;5.80;1.15;;;28.70;73.60;;;;;;5001935;28;20049;-67
2023/07/12 08:59:17;;;;;;;7.03;1.30;;;27.50;74.60;;;;;;5011494;28;20270;-64
2023/07/12 09:05:26;;;;;;;8.45;1.48;;;;;;;;;;5009149;28;20294;-61
2023/07/12 09:08:01;;;;;;;8.10;1.10;;;27.90;75.70;;;;;;5001609;28;20056;-63
2023/07/12 09:10:34;;;;;;;5.97;1.27;;;28.40;76.20;;;;;;5008339;28;20121;-68
2023/07/12 09:16:42;;;;;;;7.78;2.17;;;29.20;74.20;;;;;;5028218;28;20082;-67
2023/07/12 09:19:20;;;;;;;6.05;1.50;;;28.60;73.80;;;;;;4996897;28;20360;-65
2023/07/12 09:21:56;;;;;;;14.77;2.90;;;27.50;75.40;;;;;;5012342;28;20458;-65
2023/07/12 09:24:25;;;;;;;6.53;2.35;;;25.90;82.20;;;;;;5011162;28;20379;-67
2023/07/12 09:27:01;;;;;;;9.55;2.90;;;24.20;85.40;;;;;;5003336;28;20136;-62
2023/07/12 09:29:59;;;;;;;6.10;2.72;;;22.50;91.70;;;;;;5020132;28;20049;-66
2023/07/12 09:36:04;;;;;;;10.27;2.55;;;22.50;95.60;;;;;;5006879;28;20083;-62
2023/07/12 09:38:38;;;;;;;6.22;1.58;;;21.90;97.60;;;;;;5009812;28;20683;-64
2023/07/12 09:41:36;;;;;;;8.70;2.33;;;21.80;95.80;;;;;;4997878;28;20033;-62
2023/07/12 09:44:04;;;;;;;10.63;1.90;;;;;;;;;;5018031;28;20289;-64
2023/07/12 09:47:27;;;;;;;6.57;2.20;;;21.30;97.00;;;;;;5025247;28;20069;-65
2023/07/12 09:50:36;;;;;;;24.25;4.25;;;21.30;99.30;;;;;;5011637;28;20053;-67
2023/07/12 09:53:26;;;;;;;10.10;2.88;;;22.00;99.90;;;;;;5004929;28;20337;-65
2023/07/12 09:56:37;;;;;;;6.75;2.42;;;23.20;99.90;;;;;;4993024;28;20049;-66
2023/07/12 09:59:36;;;;;;;8.18;1.80;;;24.00;98.80;;;;;;5024176;28;20248;-66
2023/07/12 10:02:19;;;;;;;10.45;2.20;;;23.60;98.90;;;;;;5012013;28;20498;-63
2023/07/12 10:04:59;;;;;;;9.85;1.98;;;23.60;97.40;;;;;;5010048;28;20060;-66
2023/07/12 10:07:54;;;;;;;9.63;1.30;;;23.40;97.00;;;;;;5011660;28;20044;-66
2023/07/12 10:10:29;;;;;;;9.45;2.28;;;23.30;99.70;;;;;;4986802;28;20521;-65
2023/07/12 10:13:04;;;;;;;8.98;2.20;;;23.70;97.20;;;;;;4995959;28;20087;-64
2023/07/12 10:15:37;;;;;;;10.45;2.10;;;23.70;96.90;;;;;;5006611;28;20053;-65
2023/07/12 10:18:04;;;;;;;7.97;1.85;;;23.10;98.90;;;;;;5006878;28;20048;-69
2023/07/12 10:24:37;;;;;;;7.07;1.38;;;23.10;96.70;;;;;;5010807;28;20144;-66
2023/07/12 10:27:10;;;;;;;6.10;1.10;;;23.20;97.20;;;;;;5012577;28;20037;-64
2023/07/12 10:29:46;;;;;;;5.47;0.80;;;24.10;97.10;;;;;;5029397;28;20045;-65
2023/07/12 10:32:22;;;;;;;6.10;1.90;;;25.40;96.70;;;;;;5022785;28;20110;-63
2023/07/12 10:35:19;;;;;;;4.65;0.80;;;26.30;95.00;;;;;;5030805;28;20045;-66
2023/07/12 10:38:11;;;;;;;7.72;1.17;;;27.40;93.20;;;;;;5041749;28;20057;-62
2023/07/12 10:40:42;;;;;;;6.43;1.05;;;27.60;93.50;;;;;;5022716;28;20060;-65
2023/07/12 10:43:12;;;;;;;;;;;27.70;90.60;;;;;;5019936;28;20138;-65
2023/07/12 10:45:39;;;;;;;5.95;1.08;;;24.80;89.00;;;;;;5014842;28;20500;-62
2023/07/12 10:48:06;;;;;;;6.85;1.20;;;27.60;89.20;;;;;;5020312;28;20143;-63
2023/07/12 10:50:37;;;;;;;6.45;1.15;;;27.50;88.40;;;;;;5023954;28;20049;-61
2023/07/12 10:53:20;;;;;;;6.68;1.50;;;27.30;88.10;;;;;;5031890;28;20136;-63
2023/07/12 10:56:08;;;;;;;6.35;0.80;;;26.70;87.80;;;;;;5031455;28;20044;-65
2023/07/12 10:58:50;;;;;;;4.55;1.08;;;26.00;87.90;;;;;;5029006;28;20048;-63
2023/07/12 11:01:53;;;;;;;6.18;0.90;;;25.20;89.00;;;;;;5025107;28;20041;-62
2023/07/12 11:04:31;;;;;;;5.60;0.90;;;24.90;90.70;;;;;;5019031;28;20892;-61
2023/07/12 11:07:00;;;;;;;6.20;1.33;;;24.60;92.00;;;;;;5003519;28;20069;-63
2023/07/12 11:09:46;;;;;;;7.10;1.83;;;24.00;93.40;;;;;;5015734;28;20080;-64
2023/07/12 11:12:16;;;;;;;3.85;0.80;;;24.00;92.00;;;;;;5036357;28;20466;-63
2023/07/12 11:14:47;;;;;;;5.93;0.80;;;23.50;94.10;;;;;;5033944;28;20136;-61
2023/07/12 11:17:21;;;;;;;6.57;0.98;;;23.50;92.60;;;;;;5024439;28;20369;-63
2023/07/12 11:20:02;;;;;;;4.18;1.02;;;23.40;93.20;;;;;;5020563;28;20053;-66
2023/07/12 11:22:55;;;;;;;6.17;1.47;;;23.40;93.80;;;;;;5020031;28;20124;-62
2023/07/12 11:25:23;;;;;;;2.78;0.45;;;23.20;94.50;;;;;;5033427;28;20792;-63
2023/07/12 11:28:24;;;;;;;7.00;1.60;;;23.20;94.80;;;;;;5007348;28;20080;-60
2023/07/12 11:31:13;;;;;;;5.45;1.10;;;23.20;95.10;;;;;;5031065;28;20480;-62
2023/07/12 11:33:40;;;;;;;2.85;0.55;;;;;;;;;;5031011;28;20068;-63
2023/07/12 11:36:20;;;;;;;3.35;1.08;;;23.60;97.20;;;;;;5035377;28;20152;-65
2023/07/12 11:38:49;;;;;;;1.75;0.60;;;23.70;95.00;;;;;;5036906;28;20092;-64
2023/07/12 11:41:26;;;;;;;3.42;0.90;;;21.10;94.20;;;;;;5030209;28;20080;-62
2023/07/12 11:44:06;;;;;;;4.50;0.55;;;24.00;94.40;;;;;;5026790;28;20143;-63
2023/07/12 11:46:37;;;;;;;4.95;0.63;;;24.10;94.30;;;;;;5009778;28;20056;-64
2023/07/12 11:49:17;;;;;;;3.35;0.80;;;24.00;94.30;;;;;;5017499;28;20524;-61
2023/07/12 11:51:46;;;;;;;4.15;0.60;;;23.90;93.10;;;;;;5006878;28;20289;-63
2023/07/12 11:54:26;;;;;;;5.25;0.65;;;23.90;95.10;;;;;;5020353;28;20872;-65
2023/07/12 11:56:58;;;;;;;4.53;0.60;;;23.90;92.50;;;;;;5018411;28;20060;-61
2023/07/12 11:59:24;;;;;;;;;;;23.90;92.70;;;;;;5006809;28;20053;-64
2023/07/12 12:01:52;;;;;;;3.80;0.73;;;23.80;92.70;;;;;;5034869;28;20019;-61
2023/07/12 12:04:24;;;;;;;2.22;0.55;;;23.80;92.90;;;;;;5029240;28;20048;-65
2023/07/12 12:06:53;;;;;;;5.38;0.70;;;23.70;93.30;;;;;;5023473;28;20072;-62
2023/07/12 12:09:30;;;;;;;2.28;0.50;;;23.60;93.30;;;;;;5017378;28;20061;-62
2023/07/12 12:11:58;;;;;;;3.13;0.75;;;23.60;93.50;;;;;;5002493;28;20057;-65
2023/07/12 12:14:31;;;;;;;5.18;0.40;;;23.60;93.90;;;;;;5010290;28;20060;-65
2023/07/12 12:17:05;;;;;;;3.13;0.30;;;23.70;94.30;;;;;;5003941;28;20135;-65
2023/07/12 12:19:32;;;;;;;3.75;0.50;;;23.70;93.10;;;;;;5008453;28;20060;-63
2023/07/12 12:22:24;;;;;;;2.67;0.40;;;23.90;92.90;;;;;;5013863;28;20207;-62
2023/07/12 12:24:53;;;;;;;;;;;23.90;93.20;;;;;;5030423;28;20057;-65
2023/07/12 12:27:34;;;;;;;3.35;1.10;;;24.10;92.40;;;;;;5025994;28;20374;-65
2023/07/12 12:30:33;;;;;;;3.27;0.40;;;24.10;92.50;;;;;;5029574;28;20127;-63
2023/07/12 12:33:03;;;;;;;2.92;0.57;;;24.10;92.20;;;;;;5035736;28;20490;-64
2023/07/12 12:35:29;;;;;;;1.92;0.40;;;24.00;92.30;;;;;;5016869;28;20045;-65
2023/07/12 12:37:58;;;;;;;3.42;0.50;;;24.10;92.60;;;;;;5024245;28;20134;-65
2023/07/12 12:40:24;;;;;;;2.78;0.40;;;24.10;92.50;;;;;;5024957;28;20596;-62
2023/07/12 12:42:53;;;;;;;2.45;0.30;;;23.70;92.60;;;;;;5025985;28;20042;-63
2023/07/12 12:45:19;;;;;;;3.13;0.20;;;;;;;;;;5033058;28;20075;-64
2023/07/12 12:47:45;;;;;;;2.25;0.50;;;;;;;;;;5027271;28;20431;-64
2023/07/12 12:50:19;;;;;;;2.45;0.43;;;23.90;90.30;;;;;;5026489;28;20146;-63
2023/07/12 12:52:45;;;;;;;4.47;0.35;;;23.90;91.10;;;;;;5010617;28;20054;-63
2023/07/12 12:55:11;;;;;;;2.13;0.40;;;23.80;91.50;;;;;;5005818;28;20045;-62
2023/07/12 12:57:39;;;;;;;3.17;0.40;;;23.70;91.60;;;;;;5007107;28;20589;-59
2023/07/12 13:00:20;;;;;;;6.00;0.77;;;23.60;91.90;;;;;;5021509;28;20410;-63
2023/07/12 13:02:47;;;;;;;3.88;0.93;;;;;;;;;;5022184;28;20122;-65
2023/07/12 13:05:14;;;;;;;1.13;0.30;;;23.40;91.10;;;;;;5018423;28;20048;-62
2023/07/12 13:07:42;;;;;;;2.30;0.20;;;23.50;91.40;;;;;;5034080;28;20052;-65
2023/07/12 13:10:19;;;;;;;1.60;0.38;;;23.40;90.90;;;;;;5025404;28;20266;-64
2023/07/12 13:12:49;;;;;;;4.03;0.50;;;23.30;90.50;;;;;;5010019;28;20103;-61
2023/07/12 13:15:23;;;;;;;4.25;0.50;;;23.30;90.60;;;;;;5021876;28;20067;-64
2023/07/12 13:17:50;;;;;;;4.07;0.40;;;23.40;90.80;;;;;;5021661;28;20041;-64
2023/07/12 13:20:19;;;;;;;3.60;1.20;;;23.40;91.10;;;;;;5021913;28;20511;-66
2023/07/12 13:22:47;;;;;;;4.75;0.40;;;23.40;91.20;;;;;;5028355;28;20526;-59
2023/07/12 13:25:14;;;;;;;2.00;0.30;;;23.30;91.30;;;;;;5018504;28;20164;-67
2023/07/12 13:27:47;;;;;;;1.98;0.40;;;23.30;91.40;;;;;;5018714;28;20458;-67
2023/07/12 13:30:18;;;;;;;3.45;0.30;;;23.40;91.30;;;;;;5002790;28;20084;-65
2023/07/12 13:32:44;;;;;;;2.50;0.47;;;;;;;;;;5033477;28;20057;-64
2023/07/12 13:35:16;;;;;;;3.05;0.30;;;23.40;90.80;;;;;;5015175;28;20088;-61
2023/07/12 13:37:43;;;;;;;1.58;0.30;;;23.40;91.10;;;;;;5019481;28;20092;-64
2023/07/12 13:40:12;;;;;;;1.90;0.30;;;23.30;90.70;;;;;;5022363;28;20136;-65
2023/07/12 13:42:43;;;;;;;1.33;0.40;;;23.30;90.80;;;;;;5025561;28;20194;-67
2023/07/12 13:45:10;;;;;;;1.92;0.35;;;23.20;90.80;;;;;;5021920;28;20418;-64